WMKKWIDD

Guest
Details From WMKK - Kuala Lumpur Intl - Sepang
To WIDD - Batam Hang Nadim
Flight Number -
Tags decoded
Created
Modified
Stats Distance 179 nm / 331 km
Max Altitude 0 ft / 0 m
Waypoints 3
Social Downloads 1
Likes 0
Share VATSIM

Download

Looking for another format? Having issues loading an existing format? Contact us
Advertisement - Login to hide

Notes

Requested: WMKK BATAR SINJON WIDD Unmatched points: SINJON

Route

WMKK BATAR WIDD

ID Type Via Altitude Latitude Longitude Leg Dist Tot Dist Heading (true) Name
O WMKK APT - 0 ft / 0 m 2.74558˚ 101.70991˚ - 0 nm - Kuala Lumpur Intl - Sepang
BATAR FIX - 0 ft / 0 m 2.16667˚ 102.08694˚ 41 nm 41 nm 147° / 147° -
O WIDD APT - 0 ft / 0 m 1.12103˚ 104.11875˚ 137 nm 178 nm 117° / 117° Batam Hang Nadim

Altitude Profile

Advertisement - Login to hide

Weather


0- 5 10 15 20 25 30 35+ Temperature / ° C

Clouds and Precipitation
Forecast for 2017-12-15 18:00 UTC. Updated an hour ago

Ground ~20,000 ft ~40,000 ft Winds

WMKK

Details ICAO WMKK (KUL)
Name Kuala Lumpur Intl - Sepang
Region Malaysia (Peninsular Malaysia)
Timezone Asia/Kuala_Lumpur (UTC+8.0)
Stats Elevation 70 ft / 21 m (AMSL)
Location 2.745578° 101.709913°
Runways 2
Magnetic Variation 0.000° E

METAR

WMKK 151530Z 02003KT 320V060 9999 FEW030 SCT140 BKN280 26/23 Q1012 NOSIG

Decode

TAF

TAF WMKK 151100Z 1512/1618 26005KT 9999 FEW017CB SCT140 BKN280 TEMPO 1519/1523 3000 TSRA FEW015CB SCT018 TEMPO 1606/1610 3000 TSRA FEW015CB SCT018

Decode

Departure Runways

ID Width Length Bearing (true) Bearing (mag) Surface Threshold Offset Overrun Length
14L 197 ft / 60 m 13,577 ft / 4,138 m 146.13° 146.13° Asphalt 500 ft / 152 m 0 ft / 0 m
14R 197 ft / 60 m 13,337 ft / 4,065 m 146.22° 146.22° Asphalt 500 ft / 152 m 0 ft / 0 m
32L 197 ft / 60 m 13,337 ft / 4,065 m 326.22° 326.22° Asphalt 500 ft / 152 m 0 ft / 0 m
32R 197 ft / 60 m 13,577 ft / 4,138 m 326.13° 326.13° Asphalt 500 ft / 152 m 0 ft / 0 m

WIDD

Details ICAO WIDD (BTH)
Name Batam Hang Nadim
Region Indonesia
Timezone Asia/Jakarta (UTC+7.0)
Stats Elevation 126 ft / 38 m (AMSL)
Location 1.121028° 104.118754°
Runways 1
Magnetic Variation 0.248° E

METAR

WIDD 151500Z 02002KT 9999 FEW014 27/24 Q1014 NOSIG

Decode

TAF

TAF WIDD 151100Z 1512/1612 36005KT 9000 SCT014 BECMG 1600/1602 05008KT

Decode

Destination Runways

ID Width Length Bearing (true) Bearing (mag) Surface Threshold Offset Overrun Length
04 148 ft / 45 m 13,295 ft / 4,052 m 41.80° 41.55° Asphalt 0 ft / 0 m 200 ft / 61 m
22 148 ft / 45 m 13,295 ft / 4,052 m 221.80° 221.55° Asphalt 0 ft / 0 m 200 ft / 61 m

Approach Navaids

Runway Type Ident Frequency Range Bearing (true) Bearing (mag) Slope Elevation
04 Localiser IBTM 110.10 MHz 18 nm / 33 km 41.79° 41.54° - 69 ft / 21 m (AMSL)
04 Glidescope IBTM 110.10 MHz 10 nm / 19 km 41.80° 41.55° 3.00° 125 ft / 38 m (AMSL)
04 DME IBTM 110.10 MHz 18 nm / 33 km - - - 69 ft / 21 m (AMSL)

Popular Alternatives